createdAt,value
2018-03-08T00:00:53.533Z,74.20
2018-03-08T00:03:21.101Z,74.30
2018-03-08T00:05:48.710Z,73.90
2018-03-08T00:08:16.289Z,73.20
2018-03-08T00:10:44.633Z,73.20
2018-03-08T00:13:12.233Z,73.10
2018-03-08T00:15:39.810Z,73.00
2018-03-08T00:18:07.385Z,72.50
2018-03-08T00:20:34.985Z,72.80
2018-03-08T00:23:03.334Z,73.50
2018-03-08T00:25:30.901Z,72.80
2018-03-08T00:27:58.504Z,72.90
2018-03-08T00:30:26.852Z,72.40
2018-03-08T00:32:54.442Z,72.40
2018-03-08T00:35:22.794Z,73.20
2018-03-08T00:37:50.359Z,73.20
2018-03-08T00:40:17.931Z,73.20
2018-03-08T00:42:46.294Z,73.10
2018-03-08T00:45:14.014Z,73.00
2018-03-08T00:47:41.578Z,72.80
2018-03-08T00:50:09.180Z,72.80
2018-03-08T00:52:36.759Z,73.00
2018-03-08T00:55:04.332Z,73.40
2018-03-08T00:57:31.927Z,72.20
2018-03-08T00:59:59.507Z,71.90
2018-03-08T01:02:27.866Z,71.50
2018-03-08T01:04:55.482Z,71.40
2018-03-08T01:07:23.825Z,71.10
2018-03-08T01:09:51.385Z,71.00
2018-03-08T01:12:19.018Z,70.80
2018-03-08T01:14:46.611Z,70.90
2018-03-08T01:17:14.192Z,71.10
2018-03-08T01:19:42.564Z,70.80
2018-03-08T01:22:10.912Z,70.50
2018-03-08T01:24:38.492Z,70.50
2018-03-08T01:27:06.102Z,70.80
2018-03-08T01:29:33.673Z,70.80
2018-03-08T01:32:01.255Z,70.70
2018-03-08T01:34:28.852Z,70.60
2018-03-08T01:36:57.198Z,70.30
2018-03-08T01:39:24.778Z,70.30
2018-03-08T01:41:53.156Z,70.30
2018-03-08T01:44:20.737Z,70.30
2018-03-08T01:46:49.084Z,70.00
2018-03-08T01:49:16.689Z,70.00
2018-03-08T01:51:56.038Z,70.20
2018-03-08T01:54:23.642Z,70.60
2018-03-08T01:56:51.263Z,70.70
2018-03-08T01:59:18.826Z,71.40
2018-03-08T02:01:46.447Z,70.90
2018-03-08T02:04:14.786Z,71.50
2018-03-08T02:06:42.358Z,71.60
2018-03-08T02:09:09.960Z,71.60
2018-03-08T02:11:37.540Z,71.10
2018-03-08T02:14:05.119Z,71.10
2018-03-08T02:16:32.713Z,71.20
2018-03-08T02:19:01.068Z,71.10
2018-03-08T02:21:28.640Z,71.10
2018-03-08T02:23:56.250Z,71.00
2018-03-08T02:26:23.829Z,71.10
2018-03-08T02:28:51.407Z,71.40
2018-03-08T02:31:19.012Z,71.40
2018-03-08T02:33:46.583Z,71.50
2018-03-08T02:36:14.225Z,71.40
2018-03-08T02:38:42.592Z,71.60
2018-03-08T02:41:10.954Z,71.60
2018-03-08T02:43:38.523Z,71.50
2018-03-08T02:46:06.133Z,71.40
2018-03-08T02:48:33.715Z,71.30
2018-03-08T02:51:01.296Z,71.50
2018-03-08T02:53:28.895Z,71.50
2018-03-08T02:55:56.463Z,71.30
2018-03-08T02:58:24.031Z,71.40
2018-03-08T03:00:51.628Z,71.70
2018-03-08T03:03:19.208Z,72.20
2018-03-08T03:05:47.550Z,71.60
2018-03-08T03:08:15.146Z,71.60
2018-03-08T03:10:43.491Z,71.80
2018-03-08T03:13:11.087Z,71.70
2018-03-08T03:15:39.461Z,72.80
2018-03-08T03:18:07.800Z,74.10
2018-03-08T03:20:35.373Z,73.40
2018-03-08T03:23:02.959Z,74.20
2018-03-08T03:25:31.310Z,75.40
2018-03-08T03:27:58.894Z,75.30
2018-03-08T03:30:27.265Z,76.40
2018-03-08T03:32:54.845Z,76.30
2018-03-08T03:35:23.759Z,77.10
2018-03-08T03:37:51.370Z,77.10
2018-03-08T03:40:18.944Z,77.80
2018-03-08T03:42:46.516Z,77.60
2018-03-08T03:45:14.897Z,77.70
2018-03-08T03:47:43.251Z,77.50
2018-03-08T03:50:10.844Z,77.50
2018-03-08T03:52:39.268Z,76.60
2018-03-08T03:55:06.867Z,76.60
2018-03-08T03:57:35.199Z,74.80
2018-03-08T04:00:02.800Z,74.80
2018-03-08T04:02:30.376Z,75.00
2018-03-08T04:04:58.724Z,75.00
2018-03-08T04:07:26.320Z,75.00
2018-03-08T04:09:54.659Z,74.70
2018-03-08T04:12:22.242Z,74.80
2018-03-08T04:14:50.618Z,74.50
2018-03-08T04:17:18.965Z,74.40
2018-03-08T04:19:46.543Z,74.40
2018-03-08T04:22:14.138Z,74.50
2018-03-08T04:24:42.478Z,74.40
2018-03-08T04:27:10.049Z,74.40
2018-03-08T04:29:38.422Z,74.10
2018-03-08T04:32:06.002Z,74.10
2018-03-08T04:34:34.342Z,73.60
2018-03-08T04:37:01.944Z,73.60
2018-03-08T04:39:30.287Z,74.20
2018-03-08T04:41:57.869Z,74.10
2018-03-08T04:44:26.241Z,74.10
2018-03-08T04:46:54.603Z,74.20
2018-03-08T04:49:22.184Z,74.10
2018-03-08T04:51:49.771Z,74.00
2018-03-08T04:54:17.393Z,74.60
2018-03-08T04:56:44.968Z,74.70
2018-03-08T04:59:13.336Z,75.80
2018-03-08T05:01:40.914Z,75.70
2018-03-08T05:04:09.252Z,75.70
2018-03-08T05:06:36.862Z,75.60
2018-03-08T05:09:05.191Z,75.80
2018-03-08T05:11:32.771Z,75.80
2018-03-08T05:14:00.369Z,76.10
2018-03-08T05:16:27.936Z,76.40
2018-03-08T05:18:55.506Z,76.70
2018-03-08T05:21:23.107Z,76.60
2018-03-08T05:23:50.684Z,76.40
2018-03-08T05:26:19.033Z,76.20
2018-03-08T05:28:46.639Z,76.10
2018-03-08T05:31:14.967Z,76.40
2018-03-08T05:33:42.531Z,76.40
2018-03-08T05:36:10.135Z,76.30
2018-03-08T05:38:37.706Z,76.70
2018-03-08T05:41:05.290Z,76.90
2018-03-08T05:43:32.884Z,76.60
2018-03-08T05:46:00.468Z,76.70
2018-03-08T05:48:28.810Z,76.20
2018-03-08T05:50:56.406Z,76.20
2018-03-08T05:53:24.729Z,75.80
2018-03-08T05:55:52.294Z,75.80
2018-03-08T05:58:19.891Z,75.50
2018-03-08T06:00:48.388Z,75.20
2018-03-08T06:03:16.714Z,75.20
2018-03-08T06:05:44.309Z,75.20
2018-03-08T06:08:11.880Z,74.60
2018-03-08T06:10:40.312Z,74.90
2018-03-08T06:13:07.913Z,74.90
2018-03-08T06:15:36.266Z,75.00
2018-03-08T06:18:03.847Z,75.00
2018-03-08T06:20:31.445Z,75.10
2018-03-08T06:22:59.026Z,74.10
2018-03-08T06:25:26.591Z,74.00
2018-03-08T06:27:54.205Z,73.70
2018-03-08T06:30:22.566Z,72.20
2018-03-08T06:32:50.907Z,72.10
2018-03-08T06:35:18.502Z,72.00
2018-03-08T06:37:46.090Z,71.50
2018-03-08T06:40:13.655Z,71.50
2018-03-08T06:42:41.251Z,71.50
2018-03-08T06:45:08.822Z,70.70
2018-03-08T06:47:36.395Z,70.20
2018-03-08T06:50:04.013Z,69.80
2018-03-08T06:52:31.591Z,69.80
2018-03-08T06:54:59.170Z,69.70
2018-03-08T06:57:26.784Z,69.70
2018-03-08T06:59:54.355Z,69.50
2018-03-08T07:02:21.943Z,69.90
2018-03-08T07:04:49.534Z,69.10
2018-03-08T07:07:17.875Z,69.10
2018-03-08T07:09:45.463Z,69.10
2018-03-08T07:12:13.831Z,68.80
2018-03-08T07:14:41.407Z,68.80
2018-03-08T07:17:09.776Z,68.80
2018-03-08T07:19:37.371Z,68.70
2018-03-08T07:22:04.962Z,68.10
2018-03-08T07:24:32.531Z,68.10
2018-03-08T07:27:00.134Z,67.90
2018-03-08T07:29:28.472Z,68.20
2018-03-08T07:31:56.047Z,68.10
2018-03-08T07:34:23.678Z,67.80
2018-03-08T07:36:51.256Z,67.50
2018-03-08T07:39:18.835Z,66.00
2018-03-08T07:41:46.446Z,66.00
2018-03-08T07:44:14.028Z,66.90
2018-03-08T07:46:41.610Z,64.90
2018-03-08T07:49:09.216Z,64.40
2018-03-08T07:51:36.800Z,64.30
2018-03-08T07:54:04.376Z,64.80
2018-03-08T07:56:31.971Z,64.50
2018-03-08T07:59:00.752Z,67.00
2018-03-08T08:01:29.145Z,65.70
2018-03-08T08:03:57.515Z,65.60
2018-03-08T08:06:37.641Z,65.20
2018-03-08T08:09:08.903Z,65.10
2018-03-08T08:11:36.490Z,65.10
2018-03-08T08:14:04.838Z,65.30
2018-03-08T08:16:32.440Z,65.30
2018-03-08T08:19:00.025Z,66.60
2018-03-08T08:21:27.603Z,65.80
2018-03-08T08:23:55.215Z,65.40
2018-03-08T08:26:22.787Z,64.70
2018-03-08T08:28:50.358Z,60.30
2018-03-08T08:31:17.954Z,59.50
2018-03-08T08:33:45.531Z,56.10
2018-03-08T08:38:47.903Z,55.00
2018-03-08T08:41:16.026Z,53.50
2018-03-08T08:43:43.660Z,53.80
2018-03-08T08:46:12.049Z,56.70
2018-03-08T08:48:39.628Z,56.60
2018-03-08T08:51:07.208Z,52.90
2018-03-08T08:53:34.832Z,51.40
2018-03-08T08:56:02.444Z,49.70
2018-03-08T08:58:30.026Z,50.00
2018-03-08T09:00:57.616Z,50.30
2018-03-08T09:03:25.199Z,48.90
2018-03-08T09:05:52.778Z,47.60
2018-03-08T09:08:20.408Z,46.20
2018-03-08T09:10:47.981Z,46.80
2018-03-08T09:13:15.555Z,46.80
2018-03-08T09:15:43.151Z,45.80
2018-03-08T09:18:10.730Z,46.30
2018-03-08T09:20:39.074Z,44.10
2018-03-08T09:23:06.671Z,44.20
2018-03-08T09:25:34.251Z,47.60
2018-03-08T09:28:01.821Z,47.00
2018-03-08T09:30:29.430Z,45.30
2018-03-08T09:32:57.007Z,44.20
2018-03-08T09:35:25.355Z,42.80
2018-03-08T09:37:52.965Z,42.80
2018-03-08T09:40:20.542Z,42.20
2018-03-08T09:42:48.118Z,43.30
2018-03-08T09:45:15.721Z,42.40
2018-03-08T09:47:44.065Z,39.90
2018-03-08T09:50:11.642Z,39.90
2018-03-08T09:52:39.256Z,40.10
2018-03-08T09:55:06.826Z,39.50
2018-03-08T09:57:35.681Z,40.00
2018-03-08T10:00:03.282Z,39.40
2018-03-08T10:02:30.868Z,39.60
2018-03-08T10:04:58.512Z,39.50
2018-03-08T10:07:26.105Z,39.80
2018-03-08T10:09:54.458Z,41.00
2018-03-08T10:12:22.047Z,41.00
2018-03-08T10:14:50.427Z,37.40
2018-03-08T10:17:18.771Z,37.80
2018-03-08T10:19:46.353Z,37.70
2018-03-08T10:22:14.727Z,37.40
2018-03-08T10:24:42.308Z,37.00
2018-03-08T10:27:10.654Z,36.30
2018-03-08T10:29:38.255Z,36.30
2018-03-08T10:32:05.818Z,37.70
2018-03-08T10:34:33.412Z,36.80
2018-03-08T10:37:01.011Z,35.90
2018-03-08T10:39:28.635Z,35.60
2018-03-08T10:41:56.209Z,35.20
2018-03-08T10:44:23.823Z,35.60
2018-03-08T10:46:51.410Z,35.70
2018-03-08T10:49:19.961Z,34.30
2018-03-08T10:51:47.554Z,36.10
2018-03-08T10:54:15.157Z,36.40
2018-03-08T10:56:43.498Z,33.50
2018-03-08T10:59:11.099Z,33.50
2018-03-08T11:01:44.271Z,32.20
2018-03-08T11:04:14.849Z,32.20
2018-03-08T11:06:42.433Z,31.90
2018-03-08T11:09:10.024Z,30.00
2018-03-08T11:11:37.624Z,32.60
2018-03-08T11:14:05.215Z,32.80
2018-03-08T11:16:32.794Z,30.60
2018-03-08T11:19:00.400Z,31.70
2018-03-08T11:21:27.979Z,33.20
2018-03-08T11:23:55.564Z,30.70
2018-03-08T11:26:23.176Z,30.70
2018-03-08T11:28:50.777Z,32.60
2018-03-08T11:31:18.364Z,31.30
2018-03-08T11:33:45.972Z,30.60
2018-03-08T11:36:13.556Z,30.60
2018-03-08T11:38:41.141Z,31.60
2018-03-08T11:41:08.738Z,31.80
2018-03-08T11:43:37.080Z,28.80
2018-03-08T11:46:04.651Z,28.70
2018-03-08T11:48:33.754Z,29.00
2018-03-08T11:50:59.870Z,30.10
2018-03-08T11:53:27.459Z,28.80
2018-03-08T11:55:55.076Z,28.90
2018-03-08T11:58:22.649Z,28.70
2018-03-08T12:00:50.218Z,29.10
2018-03-08T12:03:17.808Z,27.30
2018-03-08T12:05:45.403Z,28.80
2018-03-08T12:08:12.977Z,29.10
2018-03-08T12:10:40.583Z,27.10
2018-03-08T12:13:08.926Z,28.80
2018-03-08T12:15:36.506Z,28.80
2018-03-08T12:18:04.876Z,28.50
2018-03-08T12:20:32.439Z,28.50
2018-03-08T12:23:00.790Z,28.50
2018-03-08T12:25:28.379Z,28.50
2018-03-08T12:27:56.717Z,28.10
2018-03-08T12:30:24.294Z,28.00
2018-03-08T12:32:51.901Z,28.50
2018-03-08T12:35:19.473Z,27.70
2018-03-08T12:37:47.050Z,29.50
2018-03-08T12:40:14.690Z,27.60
2018-03-08T12:42:42.269Z,26.60
2018-03-08T12:45:09.846Z,27.10
2018-03-08T12:47:37.459Z,27.20
2018-03-08T12:50:05.031Z,28.10
2018-03-08T12:52:32.603Z,26.10
2018-03-08T12:55:00.197Z,26.30
2018-03-08T12:57:27.770Z,26.80
2018-03-08T12:59:55.339Z,28.50
2018-03-08T13:02:23.706Z,26.00
2018-03-08T13:04:51.297Z,25.90
2018-03-08T13:07:18.880Z,26.90
2018-03-08T13:09:46.485Z,25.50
2018-03-08T13:12:14.059Z,25.90
2018-03-08T13:14:42.394Z,25.90
2018-03-08T13:17:10.069Z,25.90
2018-03-08T13:19:37.670Z,25.70
2018-03-08T13:22:05.227Z,23.60
2018-03-08T13:24:33.603Z,24.00
2018-03-08T13:27:01.943Z,24.00
2018-03-08T13:29:29.507Z,24.00
2018-03-08T13:31:57.102Z,24.50
2018-03-08T13:34:25.438Z,23.00
2018-03-08T13:36:53.017Z,23.00
2018-03-08T13:39:20.624Z,24.30
2018-03-08T13:41:48.194Z,24.40
2018-03-08T13:44:15.775Z,23.70
2018-03-08T13:46:43.389Z,25.10
2018-03-08T13:49:22.939Z,22.10
2018-03-08T13:51:50.544Z,23.10
2018-03-08T13:54:18.130Z,24.20
2018-03-08T13:56:46.479Z,25.40
2018-03-08T13:59:14.075Z,25.40
2018-03-08T14:01:42.427Z,25.70
2018-03-08T14:04:10.037Z,25.70
2018-03-08T14:06:37.618Z,24.80
2018-03-08T14:09:05.194Z,24.70
2018-03-08T14:11:32.806Z,25.30
2018-03-08T14:14:01.152Z,24.40
2018-03-08T14:16:28.735Z,24.50
2018-03-08T14:18:57.107Z,25.50
2018-03-08T14:21:25.497Z,25.50
2018-03-08T14:23:53.840Z,24.20
2018-03-08T14:26:21.450Z,24.10
2018-03-08T14:28:49.300Z,23.90
2018-03-08T14:31:16.915Z,25.30
2018-03-08T14:33:44.525Z,26.00
2018-03-08T14:36:12.111Z,25.40
2018-03-08T14:38:39.703Z,24.30
2018-03-08T14:41:07.306Z,24.30
2018-03-08T14:43:35.654Z,26.80
2018-03-08T14:46:03.233Z,26.70
2018-03-08T14:48:31.609Z,26.60
2018-03-08T14:50:59.950Z,27.40
2018-03-08T14:53:27.535Z,27.40
2018-03-08T14:55:55.125Z,25.40
2018-03-08T14:58:22.702Z,25.30
2018-03-08T15:00:50.282Z,25.20
2018-03-08T15:03:17.900Z,25.90
2018-03-08T15:05:46.237Z,25.70
2018-03-08T15:08:13.807Z,25.60
2018-03-08T15:10:41.419Z,25.60
2018-03-08T15:13:08.997Z,26.50
2018-03-08T15:15:36.577Z,26.00
2018-03-08T15:18:04.188Z,25.70
2018-03-08T15:20:31.772Z,25.90
2018-03-08T15:22:59.349Z,26.30
2018-03-08T15:25:26.960Z,26.20
2018-03-08T15:27:55.302Z,23.40
2018-03-08T15:30:22.877Z,23.40
2018-03-08T15:32:50.478Z,24.40
2018-03-08T15:35:18.058Z,23.80
2018-03-08T15:37:45.633Z,24.40
2018-03-08T15:40:13.233Z,24.70
2018-03-08T15:42:41.593Z,24.60
2018-03-08T15:45:09.174Z,24.60
2018-03-08T15:47:37.551Z,24.60
2018-03-08T15:50:05.175Z,24.60
2018-03-08T15:52:32.754Z,26.10
2018-03-08T15:55:00.366Z,25.90
2018-03-08T15:57:27.939Z,25.80
2018-03-08T15:59:55.527Z,25.20
2018-03-08T16:02:25.102Z,24.90
2018-03-08T16:04:53.383Z,24.40
2018-03-08T16:10:40.322Z,33.40
2018-03-08T16:13:07.927Z,32.80
2018-03-08T16:15:36.277Z,34.40
2018-03-08T16:18:03.850Z,34.40
2018-03-08T16:20:31.467Z,30.90
2018-03-08T16:22:59.062Z,31.40
2018-03-08T16:25:26.641Z,33.20
2018-03-08T16:27:55.012Z,31.80
2018-03-08T16:30:22.583Z,31.70
2018-03-08T16:32:50.921Z,38.80
2018-03-08T16:35:18.524Z,38.80
2018-03-08T16:37:46.867Z,36.30
2018-03-08T16:40:14.452Z,36.20
2018-03-08T16:42:42.822Z,36.40
2018-03-08T16:45:10.403Z,36.40
2018-03-08T16:47:38.744Z,38.40
2018-03-08T16:50:06.341Z,38.30
2018-03-08T16:52:34.689Z,39.60
2018-03-08T16:55:02.263Z,39.60
2018-03-08T16:57:30.639Z,41.70
2018-03-08T16:59:58.988Z,42.10
2018-03-08T17:02:26.575Z,42.10
2018-03-08T17:04:54.970Z,43.30
2018-03-08T17:07:23.326Z,42.70
2018-03-08T17:09:50.918Z,42.70
2018-03-08T17:12:18.526Z,42.50
2018-03-08T17:14:46.163Z,42.20
2018-03-08T17:17:13.736Z,41.10
2018-03-08T17:19:41.343Z,43.30
2018-03-08T17:22:09.688Z,42.50
2018-03-08T17:24:37.268Z,42.50
2018-03-08T17:27:04.872Z,39.40
2018-03-08T17:29:32.441Z,39.90
2018-03-08T17:32:00.008Z,41.70
2018-03-08T17:34:27.706Z,43.40
2018-03-08T17:36:55.292Z,42.40
2018-03-08T17:39:23.636Z,43.40
2018-03-08T17:41:52.026Z,45.60
2018-03-08T17:44:19.599Z,45.60
2018-03-08T17:46:47.933Z,46.70
2018-03-08T17:49:15.530Z,46.70
2018-03-08T17:51:43.094Z,43.00
2018-03-08T17:54:10.680Z,43.10
2018-03-08T17:56:38.279Z,44.50
2018-03-08T17:59:05.857Z,45.50
2018-03-08T18:01:33.431Z,46.50
2018-03-08T18:04:01.027Z,47.80
2018-03-08T18:06:28.607Z,46.20
2018-03-08T18:08:56.189Z,44.90
2018-03-08T18:11:23.785Z,45.20
2018-03-08T18:13:52.118Z,45.30
2018-03-08T18:16:19.688Z,45.30
2018-03-08T18:18:47.295Z,44.60
2018-03-08T18:21:15.620Z,47.00
2018-03-08T18:23:43.197Z,47.00
2018-03-08T18:26:10.803Z,48.50
2018-03-08T18:28:38.383Z,46.70
2018-03-08T18:31:06.098Z,48.70
2018-03-08T18:33:34.466Z,49.60
2018-03-08T18:36:02.039Z,49.70
2018-03-08T18:38:30.384Z,52.90
2018-03-08T18:40:57.976Z,52.90
2018-03-08T18:43:26.411Z,52.70
2018-03-08T18:45:53.987Z,52.70
2018-03-08T18:48:21.588Z,52.50
2018-03-08T18:50:49.920Z,51.90
2018-03-08T18:53:17.742Z,51.90
2018-03-08T18:55:45.468Z,52.20
2018-03-08T18:58:24.994Z,52.80
2018-03-08T19:00:52.589Z,53.30
2018-03-08T19:03:21.026Z,54.30
2018-03-08T19:05:48.611Z,54.30
2018-03-08T19:08:16.220Z,54.40
2018-03-08T19:10:43.790Z,60.10
2018-03-08T19:13:11.362Z,57.10
2018-03-08T19:15:40.867Z,56.40
2018-03-08T19:18:08.443Z,56.40
2018-03-08T19:20:36.018Z,55.50
2018-03-08T19:23:03.626Z,56.00
2018-03-08T19:25:31.220Z,56.50
2018-03-08T19:27:58.799Z,55.90
2018-03-08T19:30:26.542Z,55.90
2018-03-08T19:32:54.122Z,56.60
2018-03-08T19:35:21.716Z,56.70
2018-03-08T19:37:49.317Z,56.90
2018-03-08T19:40:16.887Z,57.40
2018-03-08T19:42:44.458Z,57.10
2018-03-08T19:45:12.056Z,57.70
2018-03-08T19:47:39.635Z,57.80
2018-03-08T19:50:07.219Z,57.60
2018-03-08T19:52:34.828Z,57.60
2018-03-08T19:55:02.402Z,57.80
2018-03-08T19:57:29.962Z,57.80
2018-03-08T19:59:57.595Z,57.30
2018-03-08T20:02:25.940Z,57.90
2018-03-08T20:04:53.519Z,57.90
2018-03-08T20:07:21.131Z,57.90
2018-03-08T20:09:48.714Z,58.10
2018-03-08T20:12:16.296Z,58.00
2018-03-08T20:14:43.898Z,58.20
2018-03-08T20:17:11.470Z,58.50
2018-03-08T20:19:39.043Z,58.70
2018-03-08T20:22:06.706Z,58.60
2018-03-08T20:24:34.254Z,59.00
2018-03-08T20:27:01.833Z,59.00
2018-03-08T20:29:29.422Z,59.00
2018-03-08T20:31:57.002Z,58.70
2018-03-08T20:34:27.905Z,59.50
2018-03-08T20:36:55.499Z,59.50
2018-03-08T20:39:23.839Z,61.60
2018-03-08T20:41:52.173Z,60.90
2018-03-08T20:44:19.767Z,61.80
2018-03-08T20:46:47.394Z,60.00
2018-03-08T20:49:14.977Z,62.00
2018-03-08T20:51:42.563Z,62.70
2018-03-08T20:54:10.135Z,63.20
2018-03-08T20:56:37.715Z,63.50
2018-03-08T20:59:06.083Z,64.40
2018-03-08T21:01:33.652Z,64.40
2018-03-08T21:04:02.000Z,65.00
2018-03-08T21:06:29.603Z,65.00
2018-03-08T21:08:57.175Z,64.30
2018-03-08T21:11:24.762Z,64.30
2018-03-08T21:13:52.451Z,63.70
2018-03-08T21:16:20.036Z,63.30
2018-03-08T21:18:48.381Z,61.50
2018-03-08T21:21:15.975Z,61.50
2018-03-08T21:23:44.330Z,61.00
2018-03-08T21:26:11.903Z,61.00
2018-03-08T21:28:40.273Z,62.90
2018-03-08T21:31:07.847Z,62.70
2018-03-08T21:33:36.232Z,64.50
2018-03-08T21:36:03.827Z,64.50
2018-03-08T21:38:31.418Z,64.60
2018-03-08T21:40:59.029Z,63.90
2018-03-08T21:43:26.638Z,62.90
2018-03-08T21:45:54.219Z,63.70
2018-03-08T21:48:22.560Z,63.80
2018-03-08T21:50:50.222Z,63.80
2018-03-08T21:53:17.775Z,63.20
2018-03-08T21:55:45.362Z,62.90
2018-03-08T21:58:12.970Z,63.80
2018-03-08T22:00:40.567Z,63.70
2018-03-08T22:03:08.138Z,63.60
2018-03-08T22:05:35.734Z,64.10
2018-03-08T22:08:04.069Z,64.00
2018-03-08T22:10:31.643Z,63.90
2018-03-08T22:12:59.261Z,64.50
2018-03-08T22:15:26.857Z,64.10
2018-03-08T22:17:54.435Z,65.40
2018-03-08T22:20:22.028Z,65.40
2018-03-08T22:22:49.617Z,65.30
2018-03-08T22:25:17.189Z,65.40
2018-03-08T22:27:44.798Z,65.00
2018-03-08T22:30:13.144Z,64.10
2018-03-08T22:32:40.739Z,64.10
2018-03-08T22:35:09.096Z,65.90
2018-03-08T22:37:37.440Z,67.20
2018-03-08T22:40:05.781Z,67.00
2018-03-08T22:42:33.376Z,67.00
2018-03-08T22:45:00.953Z,68.10
2018-03-08T22:47:28.527Z,68.30
2018-03-08T22:49:56.116Z,69.20
2018-03-08T22:52:23.702Z,70.90
2018-03-08T22:54:51.281Z,70.50
2018-03-08T22:57:18.875Z,71.00
2018-03-08T22:59:47.213Z,71.70
2018-03-08T23:02:14.784Z,71.70
2018-03-08T23:04:42.374Z,70.80
2018-03-08T23:07:10.717Z,71.00
2018-03-08T23:09:38.283Z,71.00
2018-03-08T23:12:05.902Z,71.00
2018-03-08T23:14:33.483Z,71.10
2018-03-08T23:17:01.060Z,71.00
2018-03-08T23:19:28.655Z,70.80
2018-03-08T23:21:56.998Z,70.40
2018-03-08T23:24:24.577Z,70.40
2018-03-08T23:26:52.183Z,70.80
2018-03-08T23:29:19.748Z,70.90
2018-03-08T23:31:47.311Z,70.50
2018-03-08T23:34:14.908Z,71.60
2018-03-08T23:36:42.492Z,69.90
2018-03-08T23:39:10.837Z,70.30
2018-03-08T23:41:38.434Z,70.30
2018-03-08T23:44:06.778Z,71.30
2018-03-08T23:46:34.365Z,71.30
2018-03-08T23:49:02.734Z,71.80
2018-03-08T23:51:30.313Z,71.80
2018-03-08T23:53:57.885Z,71.60
2018-03-08T23:56:25.488Z,70.60
2018-03-08T23:58:53.065Z,71.10
